createdAt,value
2023-04-17T00:02:00.776Z,6.40
2023-04-17T00:04:31.326Z,6.17
2023-04-17T00:06:59.630Z,6.43
2023-04-17T00:09:26.676Z,5.95
2023-04-17T00:11:53.463Z,6.33
2023-04-17T00:14:20.397Z,6.24
2023-04-17T00:16:47.638Z,6.46
2023-04-17T00:19:14.564Z,6.26
2023-04-17T00:21:41.492Z,6.42
2023-04-17T00:24:08.321Z,6.49
2023-04-17T00:26:35.264Z,6.34
2023-04-17T00:29:02.398Z,6.26
2023-04-17T00:31:30.836Z,6.13
2023-04-17T00:33:59.062Z,6.07
2023-04-17T00:36:27.424Z,6.19
2023-04-17T00:38:54.353Z,5.99
2023-04-17T00:41:21.202Z,5.86
2023-04-17T00:43:48.243Z,5.60
2023-04-17T00:46:15.527Z,5.79
2023-04-17T00:48:44.374Z,5.52
2023-04-17T00:51:11.744Z,5.51
2023-04-17T00:53:39.359Z,5.56
2023-04-17T00:56:06.780Z,5.66
2023-04-17T00:58:33.677Z,5.90
2023-04-17T01:01:00.712Z,5.82
2023-04-17T01:03:30.189Z,6.01
2023-04-17T01:05:58.060Z,5.49
2023-04-17T01:08:25.075Z,5.65
2023-04-17T01:10:52.251Z,5.46
2023-04-17T01:13:19.172Z,5.42
2023-04-17T01:15:47.247Z,5.00
2023-04-17T01:18:14.278Z,5.62
2023-04-17T01:20:41.295Z,5.16
2023-04-17T01:23:08.529Z,5.63
2023-04-17T01:25:36.296Z,5.38
2023-04-17T01:28:03.290Z,5.61
2023-04-17T01:30:30.320Z,5.63
2023-04-17T01:33:02.382Z,5.34
2023-04-17T01:35:29.485Z,5.34
2023-04-17T01:37:56.642Z,5.73
2023-04-17T01:40:23.448Z,5.27
2023-04-17T01:42:50.393Z,5.35
2023-04-17T01:45:17.279Z,5.46
2023-04-17T01:47:44.198Z,5.61
2023-04-17T01:50:11.812Z,5.40
2023-04-17T01:52:40.046Z,5.68
2023-04-17T01:55:07.448Z,5.72
2023-04-17T01:57:34.402Z,5.30
2023-04-17T02:00:01.364Z,5.71
2023-04-17T02:02:39.517Z,5.66
2023-04-17T02:05:10.103Z,5.59
2023-04-17T02:07:36.990Z,5.45
2023-04-17T02:10:03.995Z,5.37
2023-04-17T02:12:30.908Z,5.69
2023-04-17T02:15:01.419Z,5.71
2023-04-17T02:17:28.492Z,5.58
2023-04-17T02:19:55.565Z,5.77
2023-04-17T02:22:22.449Z,5.73
2023-04-17T02:24:49.299Z,5.78
2023-04-17T02:27:16.604Z,5.87
2023-04-17T02:29:43.913Z,5.73
2023-04-17T02:32:11.014Z,5.49
2023-04-17T02:34:38.195Z,5.74
2023-04-17T02:37:05.106Z,5.82
2023-04-17T02:39:33.983Z,5.74
2023-04-17T02:42:02.543Z,5.68
2023-04-17T02:44:29.622Z,5.66
2023-04-17T02:46:56.695Z,5.73
2023-04-17T02:49:23.917Z,5.80
2023-04-17T02:51:51.305Z,5.73
2023-04-17T02:54:18.196Z,5.66
2023-04-17T02:56:45.540Z,5.81
2023-04-17T02:59:14.007Z,5.61
2023-04-17T03:01:41.115Z,5.92
2023-04-17T03:04:08.273Z,5.76
2023-04-17T03:06:35.154Z,5.88
2023-04-17T03:09:03.977Z,5.73
2023-04-17T03:11:31.129Z,5.80
2023-04-17T03:13:57.973Z,5.76
2023-04-17T03:16:24.852Z,5.84
2023-04-17T03:18:53.179Z,5.68
2023-04-17T03:21:20.989Z,5.94
2023-04-17T03:23:49.375Z,5.88
2023-04-17T03:26:17.348Z,5.53
2023-04-17T03:28:44.226Z,5.81
2023-04-17T03:31:11.139Z,5.86
2023-04-17T03:33:38.933Z,5.90
2023-04-17T03:36:06.430Z,5.72
2023-04-17T03:38:37.171Z,5.97
2023-04-17T03:41:05.952Z,5.60
2023-04-17T03:43:32.929Z,5.54
2023-04-17T03:45:59.872Z,5.81
2023-04-17T03:48:28.148Z,5.88
2023-04-17T03:50:55.018Z,5.89
2023-04-17T03:53:22.874Z,5.88
2023-04-17T03:55:50.673Z,5.55
2023-04-17T03:58:27.872Z,5.91
2023-04-17T04:00:55.852Z,5.80
2023-04-17T04:03:26.886Z,5.91
2023-04-17T04:05:53.984Z,5.78
2023-04-17T04:08:21.283Z,6.07
2023-04-17T04:10:51.476Z,5.95
2023-04-17T04:13:23.556Z,5.97
2023-04-17T04:15:57.216Z,5.75
2023-04-17T04:18:26.557Z,6.06
2023-04-17T04:20:53.794Z,5.87
2023-04-17T04:23:28.366Z,6.16
2023-04-17T04:25:58.121Z,6.02
2023-04-17T04:28:35.059Z,6.11
2023-04-17T04:31:03.006Z,6.01
2023-04-17T04:33:36.151Z,6.16
2023-04-17T04:36:03.232Z,6.06
2023-04-17T04:38:33.160Z,6.00
2023-04-17T04:41:10.561Z,6.21
2023-04-17T04:43:39.185Z,6.00
2023-04-17T04:46:09.075Z,5.95
2023-04-17T04:48:42.660Z,6.22
2023-04-17T04:51:10.150Z,6.17
2023-04-17T04:53:38.537Z,6.26
2023-04-17T04:56:06.119Z,6.34
2023-04-17T04:58:34.437Z,6.19
2023-04-17T05:01:02.899Z,6.19
2023-04-17T05:03:38.711Z,6.32
2023-04-17T05:06:07.251Z,6.06
2023-04-17T05:08:41.125Z,6.29
2023-04-17T05:11:14.985Z,6.30
2023-04-17T05:13:42.530Z,6.22
2023-04-17T05:16:16.105Z,6.30
2023-04-17T05:18:44.452Z,6.28
2023-04-17T05:21:14.574Z,6.51
2023-04-17T05:23:42.243Z,6.58
2023-04-17T05:26:09.070Z,5.42
2023-04-17T05:28:36.260Z,6.13
2023-04-17T05:31:03.359Z,6.23
2023-04-17T05:33:37.800Z,6.39
2023-04-17T05:36:06.605Z,6.56
2023-04-17T05:38:36.926Z,6.42
2023-04-17T05:41:09.681Z,6.43
2023-04-17T05:43:37.464Z,6.65
2023-04-17T05:46:04.464Z,6.56
2023-04-17T05:48:31.467Z,6.55
2023-04-17T05:50:58.560Z,6.74
2023-04-17T05:53:25.427Z,6.63
2023-04-17T05:55:56.129Z,6.76
2023-04-17T05:58:24.487Z,6.78
2023-04-17T06:00:55.387Z,6.77
2023-04-17T06:03:24.190Z,6.61
2023-04-17T06:05:57.788Z,6.86
2023-04-17T06:08:25.353Z,6.52
2023-04-17T06:10:52.609Z,6.71
2023-04-17T06:13:19.502Z,6.80
2023-04-17T06:15:50.651Z,6.71
2023-04-17T06:18:18.031Z,6.73
2023-04-17T06:20:45.814Z,6.93
2023-04-17T06:23:12.895Z,6.87
2023-04-17T06:25:39.857Z,6.89
2023-04-17T06:28:06.762Z,6.61
2023-04-17T06:30:34.423Z,6.82
2023-04-17T06:33:02.593Z,6.81
2023-04-17T06:35:30.219Z,6.55
2023-04-17T06:38:03.833Z,7.09
2023-04-17T06:40:31.051Z,6.90
2023-04-17T06:42:58.118Z,7.11
2023-04-17T06:45:27.894Z,7.04
2023-04-17T06:47:54.767Z,7.25
2023-04-17T06:50:22.010Z,7.11
2023-04-17T06:52:48.853Z,7.20
2023-04-17T06:55:15.874Z,7.19
2023-04-17T06:57:42.744Z,7.11
2023-04-17T07:00:10.319Z,7.35
2023-04-17T07:02:37.310Z,7.24
2023-04-17T07:05:07.852Z,7.34
2023-04-17T07:07:36.145Z,7.49
2023-04-17T07:10:04.523Z,7.54
2023-04-17T07:12:31.491Z,7.31
2023-04-17T07:14:58.312Z,7.57
2023-04-17T07:17:25.654Z,7.65
2023-04-17T07:19:52.552Z,8.04
2023-04-17T07:22:19.405Z,8.03
2023-04-17T07:24:46.431Z,7.90
2023-04-17T07:27:13.358Z,8.08
2023-04-17T07:29:40.175Z,7.90
2023-04-17T07:32:07.945Z,7.94
2023-04-17T07:34:34.757Z,8.08
2023-04-17T07:37:01.948Z,8.01
2023-04-17T07:39:31.847Z,7.76
2023-04-17T07:41:58.822Z,8.26
2023-04-17T07:44:25.647Z,8.39
2023-04-17T07:46:52.509Z,7.93
2023-04-17T07:49:19.348Z,7.91
2023-04-17T07:51:46.433Z,8.11
2023-04-17T07:54:13.455Z,8.20
2023-04-17T07:56:40.588Z,8.36
2023-04-17T07:59:07.431Z,8.40
2023-04-17T08:01:34.266Z,8.24
2023-04-17T08:04:01.475Z,8.26
2023-04-17T08:06:28.680Z,8.13
2023-04-17T08:08:55.573Z,8.20
2023-04-17T08:11:22.616Z,8.30
2023-04-17T08:13:49.470Z,8.38
2023-04-17T08:16:16.454Z,8.67
2023-04-17T08:18:43.422Z,8.55
2023-04-17T08:21:10.335Z,8.56
2023-04-17T08:23:37.177Z,8.75
2023-04-17T08:26:04.332Z,8.56
2023-04-17T08:28:31.505Z,8.82
2023-04-17T08:30:58.783Z,8.38
2023-04-17T08:33:27.325Z,8.62
2023-04-17T08:35:54.240Z,8.64
2023-04-17T08:38:21.190Z,8.55
2023-04-17T08:40:52.270Z,8.53
2023-04-17T08:43:21.180Z,8.26
2023-04-17T08:45:55.744Z,8.26
2023-04-17T08:48:23.746Z,8.63
2023-04-17T08:50:53.127Z,8.88
2023-04-17T08:53:21.584Z,9.00
2023-04-17T08:55:48.985Z,8.95
2023-04-17T08:58:16.155Z,9.18
2023-04-17T09:00:44.911Z,8.90
2023-04-17T09:03:13.855Z,8.65
2023-04-17T09:05:46.161Z,8.64
2023-04-17T09:08:16.309Z,8.67
2023-04-17T09:10:54.210Z,8.32
2023-04-17T09:13:25.560Z,8.32
2023-04-17T09:16:21.691Z,8.39
2023-04-17T09:18:49.623Z,8.08
2023-04-17T09:21:19.081Z,8.39
2023-04-17T09:23:49.657Z,8.25
2023-04-17T09:26:24.433Z,8.45
2023-04-17T09:29:12.350Z,8.00
2023-04-17T09:31:43.157Z,8.36
2023-04-17T09:34:13.576Z,8.26
2023-04-17T09:36:42.330Z,8.37
2023-04-17T09:39:21.039Z,8.32
2023-04-17T09:41:48.097Z,8.52
2023-04-17T09:44:28.774Z,8.46
2023-04-17T09:46:56.122Z,8.48
2023-04-17T09:49:42.734Z,8.76
2023-04-17T09:52:09.703Z,8.70
2023-04-17T09:54:40.127Z,8.70
2023-04-17T09:57:08.736Z,8.76
2023-04-17T09:59:45.535Z,8.56
2023-04-17T10:02:20.132Z,8.87
2023-04-17T10:04:47.869Z,8.91
2023-04-17T10:07:16.660Z,9.17
2023-04-17T10:09:47.455Z,9.01
2023-04-17T10:12:16.793Z,9.26
2023-04-17T10:14:47.247Z,9.04
2023-04-17T10:17:37.451Z,9.20
2023-04-17T10:20:23.204Z,9.30
2023-04-17T10:22:56.276Z,9.32
2023-04-17T10:25:29.921Z,8.95
2023-04-17T10:28:02.185Z,9.17
2023-04-17T10:30:56.247Z,9.15
2023-04-17T10:33:27.473Z,8.95
2023-04-17T10:35:55.121Z,9.27
2023-04-17T10:38:35.994Z,9.09
2023-04-17T10:41:04.868Z,8.94
2023-04-17T10:43:32.050Z,9.08
2023-04-17T10:46:06.141Z,9.23
2023-04-17T10:48:38.934Z,9.28
2023-04-17T10:51:24.809Z,9.44
2023-04-17T10:54:01.953Z,9.17
2023-04-17T10:56:32.820Z,9.34
2023-04-17T10:59:05.227Z,9.01
2023-04-17T11:01:40.095Z,9.21
2023-04-17T11:04:08.708Z,8.94
2023-04-17T11:06:40.261Z,8.96
2023-04-17T11:09:09.454Z,8.94
2023-04-17T11:11:44.694Z,8.98
2023-04-17T11:14:15.212Z,8.59
2023-04-17T11:16:43.514Z,8.76
2023-04-17T11:19:13.178Z,8.80
2023-04-17T11:21:42.673Z,8.97
2023-04-17T11:24:10.452Z,9.14
2023-04-17T11:26:47.792Z,9.37
2023-04-17T11:29:22.592Z,8.90
2023-04-17T11:31:52.219Z,9.40
2023-04-17T11:34:19.856Z,9.50
2023-04-17T11:36:51.319Z,9.78
2023-04-17T11:39:20.110Z,10.30
2023-04-17T11:41:47.115Z,10.55
2023-04-17T11:44:15.124Z,11.71
2023-04-17T11:46:42.201Z,11.29
2023-04-17T11:49:09.851Z,11.33
2023-04-17T11:51:36.963Z,11.42
2023-04-17T11:54:03.989Z,11.72
2023-04-17T11:56:31.207Z,11.60
2023-04-17T11:58:59.636Z,11.73
2023-04-17T12:01:28.074Z,10.88
2023-04-17T12:03:59.675Z,11.35
2023-04-17T12:06:37.413Z,11.52
2023-04-17T12:09:04.758Z,11.09
2023-04-17T12:11:33.267Z,11.47
2023-04-17T12:14:01.223Z,11.39
2023-04-17T12:16:29.530Z,11.92
2023-04-17T12:18:56.968Z,12.44
2023-04-17T12:21:24.232Z,12.43
2023-04-17T12:23:51.859Z,11.69
2023-04-17T12:26:18.758Z,11.47
2023-04-17T12:28:45.623Z,11.59
2023-04-17T12:31:12.941Z,10.47
2023-04-17T12:33:39.816Z,10.94
2023-04-17T12:36:07.535Z,10.57
2023-04-17T12:38:34.470Z,10.75
2023-04-17T12:41:01.314Z,10.80
2023-04-17T12:43:28.191Z,11.02
2023-04-17T12:45:55.162Z,10.77
2023-04-17T12:48:22.118Z,10.58
2023-04-17T12:50:48.910Z,10.48
2023-04-17T12:53:16.182Z,10.92
2023-04-17T12:55:44.255Z,10.48
2023-04-17T12:58:13.354Z,10.78
2023-04-17T13:00:44.031Z,10.59
2023-04-17T13:03:12.361Z,10.62
2023-04-17T13:05:39.738Z,10.70
2023-04-17T13:08:06.626Z,10.71
2023-04-17T13:10:34.542Z,10.36
2023-04-17T13:13:02.679Z,10.37
2023-04-17T13:15:29.653Z,10.60
2023-04-17T13:17:56.570Z,10.94
2023-04-17T13:20:23.608Z,10.75
2023-04-17T13:22:50.572Z,10.89
2023-04-17T13:25:17.717Z,10.76
2023-04-17T13:27:44.619Z,10.69
2023-04-17T13:30:11.958Z,10.68
2023-04-17T13:32:40.596Z,10.91
2023-04-17T13:35:09.878Z,10.13
2023-04-17T13:37:36.810Z,10.78
2023-04-17T13:40:06.581Z,10.56
2023-04-17T13:42:33.523Z,10.45
2023-04-17T13:45:00.373Z,10.59
2023-04-17T13:47:27.315Z,10.64
2023-04-17T13:49:54.353Z,10.57
2023-04-17T13:52:21.320Z,10.59
2023-04-17T13:54:48.779Z,10.67
2023-04-17T13:57:18.651Z,10.34
2023-04-17T13:59:45.587Z,10.30
2023-04-17T14:02:12.536Z,10.32
2023-04-17T14:04:39.549Z,10.59
2023-04-17T14:07:06.564Z,10.40
2023-04-17T14:09:33.523Z,10.05
2023-04-17T14:12:00.363Z,10.11
2023-04-17T14:14:28.275Z,9.85
2023-04-17T14:16:55.194Z,9.69
2023-04-17T14:19:22.116Z,9.76
2023-04-17T14:21:48.946Z,9.72
2023-04-17T14:24:16.055Z,9.87
2023-04-17T14:26:42.901Z,9.45
2023-04-17T14:29:14.143Z,9.47
2023-04-17T14:31:41.372Z,9.66
2023-04-17T14:34:08.311Z,9.55
2023-04-17T14:36:35.905Z,9.55
2023-04-17T14:39:03.551Z,9.32
2023-04-17T14:41:34.275Z,9.40
2023-04-17T14:44:01.369Z,9.38
2023-04-17T14:46:28.419Z,9.50
2023-04-17T14:48:56.384Z,9.66
2023-04-17T14:51:24.401Z,9.69
2023-04-17T14:53:53.097Z,9.27
2023-04-17T14:56:21.827Z,9.23
2023-04-17T14:58:49.082Z,9.36
2023-04-17T15:01:16.234Z,9.45
2023-04-17T15:03:46.660Z,9.06
2023-04-17T15:06:15.887Z,9.11
2023-04-17T15:08:42.927Z,9.23
2023-04-17T15:11:09.842Z,9.22
2023-04-17T15:13:36.732Z,9.08
2023-04-17T15:16:03.885Z,8.86
2023-04-17T15:18:31.110Z,9.38
2023-04-17T15:20:58.224Z,9.27
2023-04-17T15:23:26.740Z,8.93
2023-04-17T15:25:57.945Z,9.07
2023-04-17T15:28:25.622Z,9.09
2023-04-17T15:30:52.608Z,8.85
2023-04-17T15:33:20.046Z,8.93
2023-04-17T15:35:47.085Z,8.66
2023-04-17T15:38:13.946Z,8.81
2023-04-17T15:40:40.835Z,8.53
2023-04-17T15:43:07.800Z,8.60
2023-04-17T15:45:34.666Z,8.71
2023-04-17T15:48:01.951Z,8.75
2023-04-17T15:50:28.993Z,8.63
2023-04-17T15:52:55.873Z,8.67
2023-04-17T15:55:22.763Z,8.49
2023-04-17T15:57:49.679Z,8.56
2023-04-17T16:00:17.101Z,8.29
2023-04-17T16:02:47.738Z,8.70
2023-04-17T16:05:16.148Z,8.69
2023-04-17T16:07:43.407Z,8.43
2023-04-17T16:10:14.684Z,8.65
2023-04-17T16:12:45.543Z,8.86
2023-04-17T16:15:14.615Z,8.68
2023-04-17T16:17:42.099Z,9.10
2023-04-17T16:20:11.125Z,9.00
2023-04-17T16:22:38.295Z,8.72
2023-04-17T16:25:06.539Z,8.79
2023-04-17T16:27:33.892Z,8.82
2023-04-17T16:30:07.147Z,8.65
2023-04-17T16:32:41.253Z,8.49
2023-04-17T16:35:08.834Z,8.58
2023-04-17T16:37:35.937Z,8.52
2023-04-17T16:40:05.290Z,8.35
2023-04-17T16:42:32.723Z,8.27
2023-04-17T16:44:59.680Z,8.71
2023-04-17T16:47:29.424Z,8.57
2023-04-17T16:49:56.471Z,8.39
2023-04-17T16:52:23.354Z,7.87
2023-04-17T16:54:50.414Z,8.24
2023-04-17T16:57:17.345Z,8.20
2023-04-17T16:59:44.189Z,7.98
2023-04-17T17:02:11.161Z,7.87
2023-04-17T17:04:38.230Z,7.72
2023-04-17T17:07:05.340Z,7.36
2023-04-17T17:09:32.314Z,7.71
2023-04-17T17:11:59.148Z,7.51
2023-04-17T17:14:26.022Z,7.47
2023-04-17T17:16:53.473Z,7.53
2023-04-17T17:19:20.809Z,7.64
2023-04-17T17:21:47.684Z,7.32
2023-04-17T17:24:14.554Z,7.44
2023-04-17T17:26:41.490Z,7.26
2023-04-17T17:29:08.354Z,7.13
2023-04-17T17:31:35.326Z,7.28
2023-04-17T17:34:20.770Z,7.45
2023-04-17T17:36:49.692Z,7.27
2023-04-17T17:39:16.930Z,7.46
2023-04-17T17:41:45.185Z,7.06
2023-04-17T17:44:14.429Z,7.05
2023-04-17T17:46:41.591Z,7.21
2023-04-17T17:49:08.645Z,7.16
2023-04-17T17:51:35.514Z,6.84
2023-04-17T17:54:02.436Z,6.90
2023-04-17T17:56:29.348Z,6.86
2023-04-17T17:58:56.313Z,6.80
2023-04-17T18:01:26.054Z,6.92
2023-04-17T18:03:53.621Z,6.92
2023-04-17T18:06:21.480Z,7.15
2023-04-17T18:08:48.450Z,6.77
2023-04-17T18:11:15.585Z,6.98
2023-04-17T18:13:42.429Z,6.89
2023-04-17T18:16:09.819Z,6.99
2023-04-17T18:18:37.029Z,7.06
2023-04-17T18:21:07.879Z,6.66
2023-04-17T18:23:35.003Z,6.98
2023-04-17T18:26:03.430Z,6.88
2023-04-17T18:28:30.494Z,6.84
2023-04-17T18:30:57.572Z,6.81
2023-04-17T18:33:25.099Z,6.79
2023-04-17T18:35:52.453Z,6.76
2023-04-17T18:38:19.865Z,6.84
2023-04-17T18:40:47.260Z,6.80
2023-04-17T18:43:14.704Z,6.47
2023-04-17T18:45:42.067Z,6.90
2023-04-17T18:48:09.160Z,6.35
2023-04-17T18:50:38.637Z,6.58
2023-04-17T18:53:05.643Z,6.81
2023-04-17T18:55:32.687Z,6.41
2023-04-17T18:57:59.561Z,6.84
2023-04-17T19:00:26.522Z,6.56
2023-04-17T19:02:53.565Z,6.43
2023-04-17T19:05:21.714Z,6.73
2023-04-17T19:07:48.928Z,6.63
2023-04-17T19:10:15.996Z,6.68
2023-04-17T19:12:44.247Z,6.80
2023-04-17T19:15:11.861Z,6.50
2023-04-17T19:17:39.036Z,6.68
2023-04-17T19:20:06.592Z,6.76
2023-04-17T19:22:33.442Z,6.55
2023-04-17T19:25:00.379Z,6.61
2023-04-17T19:27:27.462Z,6.63
2023-04-17T19:29:54.319Z,6.48
2023-04-17T19:32:21.432Z,6.64
2023-04-17T19:34:48.467Z,6.67
2023-04-17T19:37:15.390Z,6.26
2023-04-17T19:39:42.478Z,6.28
2023-04-17T19:42:09.345Z,6.54
2023-04-17T19:44:36.205Z,6.43
2023-04-17T19:47:03.172Z,6.50
2023-04-17T19:49:31.466Z,6.60
2023-04-17T19:51:59.480Z,6.79
2023-04-17T19:54:27.414Z,6.45
2023-04-17T19:56:54.352Z,6.68
2023-04-17T19:59:21.382Z,6.63
2023-04-17T20:01:49.083Z,6.64
2023-04-17T20:04:16.981Z,6.47
2023-04-17T20:06:44.445Z,6.44
2023-04-17T20:09:14.048Z,6.29
2023-04-17T20:11:41.722Z,6.48
2023-04-17T20:14:08.600Z,6.53
2023-04-17T20:16:35.472Z,6.41
2023-04-17T20:19:02.696Z,6.53
2023-04-17T20:21:29.541Z,6.11
2023-04-17T20:23:56.472Z,6.15
2023-04-17T20:26:23.306Z,6.15
2023-04-17T20:28:50.297Z,6.13
2023-04-17T20:31:17.302Z,6.12
2023-04-17T20:33:44.212Z,5.87
2023-04-17T20:36:12.479Z,6.36
2023-04-17T20:38:39.712Z,6.25
2023-04-17T20:41:06.613Z,6.00
2023-04-17T20:43:33.457Z,6.10
2023-04-17T20:46:00.410Z,6.21
2023-04-17T20:48:27.362Z,6.32
2023-04-17T20:50:55.193Z,6.06
2023-04-17T20:53:22.127Z,6.23
2023-04-17T20:55:49.390Z,6.15
2023-04-17T20:58:16.221Z,5.96
2023-04-17T21:00:54.386Z,5.84
2023-04-17T21:03:30.348Z,5.41
2023-04-17T21:05:57.518Z,5.57
2023-04-17T21:08:24.771Z,5.49
2023-04-17T21:10:51.889Z,5.52
2023-04-17T21:13:18.741Z,5.57
2023-04-17T21:15:45.700Z,5.40
2023-04-17T21:18:12.564Z,5.78
2023-04-17T21:20:39.564Z,5.53
2023-04-17T21:23:06.407Z,5.52
2023-04-17T21:25:33.280Z,5.45
2023-04-17T21:28:00.135Z,5.54
2023-04-17T21:30:27.594Z,5.44
2023-04-17T21:32:54.586Z,5.36
2023-04-17T21:35:21.717Z,5.38
2023-04-17T21:37:48.589Z,5.47
2023-04-17T21:40:15.429Z,5.28
2023-04-17T21:42:42.726Z,5.16
2023-04-17T21:45:10.077Z,5.19
2023-04-17T21:47:37.010Z,5.16
2023-04-17T21:50:04.320Z,5.28
2023-04-17T21:52:31.359Z,5.22
2023-04-17T21:55:03.339Z,5.06
2023-04-17T21:57:31.583Z,5.02
2023-04-17T21:59:58.448Z,4.97
2023-04-17T22:02:25.512Z,4.78
2023-04-17T22:04:52.802Z,5.15
2023-04-17T22:07:21.694Z,4.81
2023-04-17T22:09:48.924Z,4.98
2023-04-17T22:12:23.036Z,4.87
2023-04-17T22:14:50.044Z,4.56
2023-04-17T22:17:16.893Z,4.63
2023-04-17T22:19:43.796Z,4.65
2023-04-17T22:22:10.819Z,4.78
2023-04-17T22:24:37.657Z,4.48
2023-04-17T22:27:04.487Z,4.51
2023-04-17T22:29:31.462Z,4.49
2023-04-17T22:31:58.289Z,4.44
2023-04-17T22:34:25.165Z,4.53
2023-04-17T22:36:52.037Z,4.67
2023-04-17T22:39:18.852Z,4.44
2023-04-17T22:41:45.785Z,4.42
2023-04-17T22:44:13.049Z,4.66
2023-04-17T22:46:40.165Z,4.47
2023-04-17T22:49:07.750Z,4.45
2023-04-17T22:51:34.776Z,4.67
2023-04-17T22:54:11.638Z,4.50
2023-04-17T22:56:46.228Z,4.46
2023-04-17T22:59:13.065Z,4.49
2023-04-17T23:01:39.979Z,4.34
2023-04-17T23:04:06.852Z,4.48
2023-04-17T23:06:33.681Z,4.15
2023-04-17T23:09:00.577Z,4.26
2023-04-17T23:11:27.526Z,4.27
2023-04-17T23:13:54.532Z,4.50
2023-04-17T23:16:21.470Z,4.53
2023-04-17T23:18:48.381Z,4.17
2023-04-17T23:21:15.959Z,4.53
2023-04-17T23:23:42.838Z,4.36
2023-04-17T23:26:09.750Z,4.28
2023-04-17T23:28:36.617Z,4.35
2023-04-17T23:31:05.249Z,4.36
2023-04-17T23:33:35.583Z,4.43
2023-04-17T23:36:02.604Z,4.58
2023-04-17T23:38:29.478Z,4.34
2023-04-17T23:40:56.331Z,4.43
2023-04-17T23:43:23.656Z,4.46
2023-04-17T23:45:50.686Z,4.28
2023-04-17T23:48:17.612Z,4.05
2023-04-17T23:50:44.507Z,4.39
2023-04-17T23:53:11.413Z,4.25
2023-04-17T23:55:38.434Z,4.11
2023-04-17T23:58:05.305Z,4.08
